sensor_id;sensor_type;location;lat;lon;timestamp;pressure;altitude;pressure_sealevel;temperature;humidity
43115;BME280;28727;50.068;14.452;2023-07-22T00:01:41;98949.56;;;18.42;73.19
43115;BME280;28727;50.068;14.452;2023-07-22T00:04:17;98945.97;;;18.36;73.81
43115;BME280;28727;50.068;14.452;2023-07-22T00:06:50;98948.63;;;18.36;73.96
43115;BME280;28727;50.068;14.452;2023-07-22T00:09:24;98945.72;;;18.38;73.75
43115;BME280;28727;50.068;14.452;2023-07-22T00:11:58;98947.94;;;18.41;73.96
43115;BME280;28727;50.068;14.452;2023-07-22T00:14:30;98942.81;;;18.39;73.58
43115;BME280;28727;50.068;14.452;2023-07-22T00:17:04;98941.44;;;18.37;73.38
43115;BME280;28727;50.068;14.452;2023-07-22T00:19:39;98943.72;;;18.33;73.38
43115;BME280;28727;50.068;14.452;2023-07-22T00:22:11;98948.00;;;18.23;73.98
43115;BME280;28727;50.068;14.452;2023-07-22T00:24:43;98961.47;;;18.16;74.14
43115;BME280;28727;50.068;14.452;2023-07-22T00:27:16;98959.91;;;18.09;73.83
43115;BME280;28727;50.068;14.452;2023-07-22T00:29:48;98963.88;;;18.06;74.08
43115;BME280;28727;50.068;14.452;2023-07-22T00:32:23;98955.47;;;18.02;74.00
43115;BME280;28727;50.068;14.452;2023-07-22T00:34:55;98962.44;;;18.04;74.01
43115;BME280;28727;50.068;14.452;2023-07-22T00:37:28;98957.56;;;18.00;74.07
43115;BME280;28727;50.068;14.452;2023-07-22T00:40:01;98957.19;;;17.97;73.98
43115;BME280;28727;50.068;14.452;2023-07-22T00:42:35;98963.59;;;17.96;73.92
43115;BME280;28727;50.068;14.452;2023-07-22T00:45:13;98964.72;;;17.88;74.46
43115;BME280;28727;50.068;14.452;2023-07-22T00:47:45;98966.66;;;17.81;74.41
43115;BME280;28727;50.068;14.452;2023-07-22T00:50:17;98960.97;;;17.78;73.75
43115;BME280;28727;50.068;14.452;2023-07-22T00:52:49;98955.38;;;17.79;73.30
43115;BME280;28727;50.068;14.452;2023-07-22T00:55:21;98964.75;;;17.70;73.17
43115;BME280;28727;50.068;14.452;2023-07-22T00:57:54;98969.56;;;17.62;73.28
43115;BME280;28727;50.068;14.452;2023-07-22T01:00:27;98972.41;;;17.67;73.41
43115;BME280;28727;50.068;14.452;2023-07-22T01:03:01;98975.50;;;17.64;72.97
43115;BME280;28727;50.068;14.452;2023-07-22T01:05:34;98967.13;;;17.60;72.75
43115;BME280;28727;50.068;14.452;2023-07-22T01:08:07;98965.91;;;17.56;72.19
43115;BME280;28727;50.068;14.452;2023-07-22T01:10:42;98972.88;;;17.57;71.71
43115;BME280;28727;50.068;14.452;2023-07-22T01:13:14;98981.78;;;17.51;71.87
43115;BME280;28727;50.068;14.452;2023-07-22T01:15:46;98978.53;;;17.49;71.99
43115;BME280;28727;50.068;14.452;2023-07-22T01:18:18;98985.25;;;17.51;71.62
43115;BME280;28727;50.068;14.452;2023-07-22T01:20:50;98980.59;;;17.47;71.32
43115;BME280;28727;50.068;14.452;2023-07-22T01:23:25;98980.59;;;17.47;71.13
43115;BME280;28727;50.068;14.452;2023-07-22T01:25:58;98982.81;;;17.50;70.73
43115;BME280;28727;50.068;14.452;2023-07-22T01:28:30;98975.41;;;17.52;70.67
43115;BME280;28727;50.068;14.452;2023-07-22T01:31:02;98976.28;;;17.46;70.62
43115;BME280;28727;50.068;14.452;2023-07-22T01:33:36;98981.34;;;17.36;70.92
43115;BME280;28727;50.068;14.452;2023-07-22T01:36:09;98990.59;;;17.33;71.21
43115;BME280;28727;50.068;14.452;2023-07-22T01:38:46;98980.56;;;17.29;70.93
43115;BME280;28727;50.068;14.452;2023-07-22T01:41:18;98979.41;;;17.25;71.24
43115;BME280;28727;50.068;14.452;2023-07-22T01:43:50;98985.47;;;17.13;71.91
43115;BME280;28727;50.068;14.452;2023-07-22T01:46:24;98985.88;;;17.10;72.29
43115;BME280;28727;50.068;14.452;2023-07-22T01:48:58;98989.81;;;17.08;72.47
43115;BME280;28727;50.068;14.452;2023-07-22T01:51:32;98984.09;;;17.04;73.19
43115;BME280;28727;50.068;14.452;2023-07-22T01:54:05;98986.97;;;17.03;74.00
43115;BME280;28727;50.068;14.452;2023-07-22T01:56:37;98982.91;;;17.00;74.05
43115;BME280;28727;50.068;14.452;2023-07-22T01:59:09;98991.94;;;16.99;74.01
43115;BME280;28727;50.068;14.452;2023-07-22T02:01:46;98987.63;;;16.98;74.92
43115;BME280;28727;50.068;14.452;2023-07-22T02:04:22;98986.66;;;16.93;74.53
43115;BME280;28727;50.068;14.452;2023-07-22T02:06:54;98993.84;;;16.92;74.16
43115;BME280;28727;50.068;14.452;2023-07-22T02:09:26;98997.88;;;16.76;74.86
43115;BME280;28727;50.068;14.452;2023-07-22T02:11:59;98998.09;;;16.75;75.15
43115;BME280;28727;50.068;14.452;2023-07-22T02:14:30;99003.22;;;16.76;75.10
43115;BME280;28727;50.068;14.452;2023-07-22T02:17:02;99006.72;;;16.77;75.32
43115;BME280;28727;50.068;14.452;2023-07-22T02:19:58;98998.13;;;16.68;75.66
43115;BME280;28727;50.068;14.452;2023-07-22T02:22:31;99004.13;;;16.64;75.39
43115;BME280;28727;50.068;14.452;2023-07-22T02:25:09;99001.66;;;16.62;75.50
43115;BME280;28727;50.068;14.452;2023-07-22T02:27:45;99005.97;;;16.57;76.36
43115;BME280;28727;50.068;14.452;2023-07-22T02:30:18;99007.63;;;16.58;75.49
43115;BME280;28727;50.068;14.452;2023-07-22T02:32:51;99009.47;;;16.57;75.92
43115;BME280;28727;50.068;14.452;2023-07-22T02:35:26;99005.00;;;16.51;76.32
43115;BME280;28727;50.068;14.452;2023-07-22T02:37:58;99010.53;;;16.50;75.68
43115;BME280;28727;50.068;14.452;2023-07-22T02:40:34;99018.97;;;16.47;75.64
43115;BME280;28727;50.068;14.452;2023-07-22T02:43:06;99027.19;;;16.45;76.09
43115;BME280;28727;50.068;14.452;2023-07-22T02:45:41;99029.44;;;16.48;75.76
43115;BME280;28727;50.068;14.452;2023-07-22T02:48:14;99032.34;;;16.40;76.37
43115;BME280;28727;50.068;14.452;2023-07-22T02:50:46;99026.41;;;16.38;76.23
43115;BME280;28727;50.068;14.452;2023-07-22T02:53:17;99037.13;;;16.31;76.92
43115;BME280;28727;50.068;14.452;2023-07-22T02:55:51;99038.00;;;16.19;77.24
43115;BME280;28727;50.068;14.452;2023-07-22T02:58:24;99042.34;;;16.13;77.55
43115;BME280;28727;50.068;14.452;2023-07-22T03:01:02;99063.06;;;16.05;78.23
43115;BME280;28727;50.068;14.452;2023-07-22T03:03:37;99061.84;;;16.01;78.72
43115;BME280;28727;50.068;14.452;2023-07-22T03:06:08;99061.66;;;16.02;78.55
43115;BME280;28727;50.068;14.452;2023-07-22T03:08:43;99065.09;;;16.03;78.42
43115;BME280;28727;50.068;14.452;2023-07-22T03:11:15;99059.00;;;16.02;78.58
43115;BME280;28727;50.068;14.452;2023-07-22T03:13:47;99055.50;;;16.02;78.45
43115;BME280;28727;50.068;14.452;2023-07-22T03:16:20;99050.38;;;16.00;78.16
43115;BME280;28727;50.068;14.452;2023-07-22T03:18:54;99057.75;;;15.98;78.12
43115;BME280;28727;50.068;14.452;2023-07-22T03:21:26;99058.41;;;15.93;78.29
43115;BME280;28727;50.068;14.452;2023-07-22T03:24:01;99060.25;;;15.93;78.31
43115;BME280;28727;50.068;14.452;2023-07-22T03:26:36;99063.53;;;15.88;78.80
43115;BME280;28727;50.068;14.452;2023-07-22T03:29:08;99071.94;;;15.85;78.60
43115;BME280;28727;50.068;14.452;2023-07-22T03:31:42;99075.22;;;15.87;78.25
43115;BME280;28727;50.068;14.452;2023-07-22T03:34:14;99079.09;;;15.91;77.70
43115;BME280;28727;50.068;14.452;2023-07-22T03:36:49;99071.50;;;15.95;77.33
43115;BME280;28727;50.068;14.452;2023-07-22T03:39:21;99079.28;;;15.96;77.21
43115;BME280;28727;50.068;14.452;2023-07-22T03:41:55;99078.47;;;15.96;77.31
43115;BME280;28727;50.068;14.452;2023-07-22T03:44:27;99089.97;;;15.90;77.30
43115;BME280;28727;50.068;14.452;2023-07-22T03:47:01;99088.53;;;15.87;77.39
43115;BME280;28727;50.068;14.452;2023-07-22T03:49:33;99085.06;;;15.87;77.29
43115;BME280;28727;50.068;14.452;2023-07-22T03:52:07;99086.69;;;15.88;77.04
43115;BME280;28727;50.068;14.452;2023-07-22T03:54:40;99096.09;;;15.90;76.66
43115;BME280;28727;50.068;14.452;2023-07-22T03:57:12;99094.25;;;15.91;76.16
43115;BME280;28727;50.068;14.452;2023-07-22T03:59:44;99088.91;;;15.91;76.13
43115;BME280;28727;50.068;14.452;2023-07-22T04:02:16;99092.81;;;15.95;75.57
43115;BME280;28727;50.068;14.452;2023-07-22T04:04:53;99096.50;;;16.01;75.24
43115;BME280;28727;50.068;14.452;2023-07-22T04:07:25;99098.91;;;16.09;74.71
43115;BME280;28727;50.068;14.452;2023-07-22T04:09:56;99095.00;;;16.18;74.28
43115;BME280;28727;50.068;14.452;2023-07-22T04:12:29;99101.72;;;16.27;73.54
43115;BME280;28727;50.068;14.452;2023-07-22T04:15:03;99091.44;;;16.37;73.05
43115;BME280;28727;50.068;14.452;2023-07-22T04:17:35;99096.50;;;16.45;72.15
43115;BME280;28727;50.068;14.452;2023-07-22T04:20:08;99101.25;;;16.43;71.69
43115;BME280;28727;50.068;14.452;2023-07-22T04:22:42;99109.84;;;16.45;71.31
43115;BME280;28727;50.068;14.452;2023-07-22T04:25:14;99111.28;;;16.48;71.31
43115;BME280;28727;50.068;14.452;2023-07-22T04:27:46;99106.94;;;16.53;70.97
43115;BME280;28727;50.068;14.452;2023-07-22T04:30:21;99103.84;;;16.56;70.65
43115;BME280;28727;50.068;14.452;2023-07-22T04:32:57;99103.84;;;16.63;70.56
43115;BME280;28727;50.068;14.452;2023-07-22T04:35:33;99110.97;;;16.69;70.37
43115;BME280;28727;50.068;14.452;2023-07-22T04:38:05;99112.41;;;16.71;70.03
43115;BME280;28727;50.068;14.452;2023-07-22T04:40:37;99110.94;;;16.75;70.00
43115;BME280;28727;50.068;14.452;2023-07-22T04:43:09;99121.78;;;16.81;69.48
43115;BME280;28727;50.068;14.452;2023-07-22T04:45:45;99127.75;;;16.83;69.39
43115;BME280;28727;50.068;14.452;2023-07-22T04:48:20;99127.34;;;16.79;69.07
43115;BME280;28727;50.068;14.452;2023-07-22T04:50:55;99125.34;;;16.68;69.53
43115;BME280;28727;50.068;14.452;2023-07-22T04:53:27;99134.41;;;16.67;69.71
43115;BME280;28727;50.068;14.452;2023-07-22T04:56:02;99147.91;;;16.72;69.88
43115;BME280;28727;50.068;14.452;2023-07-22T04:58:35;99143.81;;;16.69;69.99
43115;BME280;28727;50.068;14.452;2023-07-22T05:01:07;99140.91;;;16.77;69.94
43115;BME280;28727;50.068;14.452;2023-07-22T05:03:40;99144.81;;;16.75;70.13
43115;BME280;28727;50.068;14.452;2023-07-22T05:06:12;99141.50;;;16.79;70.21
43115;BME280;28727;50.068;14.452;2023-07-22T05:08:49;99139.44;;;16.82;70.42
43115;BME280;28727;50.068;14.452;2023-07-22T05:11:21;99142.69;;;16.90;70.21
43115;BME280;28727;50.068;14.452;2023-07-22T05:13:54;99152.88;;;17.00;69.93
43115;BME280;28727;50.068;14.452;2023-07-22T05:16:26;99145.22;;;17.10;69.72
43115;BME280;28727;50.068;14.452;2023-07-22T05:18:58;99147.59;;;17.25;68.68
43115;BME280;28727;50.068;14.452;2023-07-22T05:21:30;99148.94;;;17.34;68.72
43115;BME280;28727;50.068;14.452;2023-07-22T05:24:02;99150.59;;;17.35;68.07
43115;BME280;28727;50.068;14.452;2023-07-22T05:26:34;99151.19;;;17.37;67.79
43115;BME280;28727;50.068;14.452;2023-07-22T05:29:06;99154.31;;;17.27;67.79
43115;BME280;28727;50.068;14.452;2023-07-22T05:31:39;99153.88;;;17.37;67.80
43115;BME280;28727;50.068;14.452;2023-07-22T05:34:10;99158.22;;;17.56;67.52
43115;BME280;28727;50.068;14.452;2023-07-22T05:36:42;99158.13;;;17.69;67.17
43115;BME280;28727;50.068;14.452;2023-07-22T05:39:14;99167.44;;;17.85;66.53
43115;BME280;28727;50.068;14.452;2023-07-22T05:41:49;99162.63;;;17.93;65.90
43115;BME280;28727;50.068;14.452;2023-07-22T05:44:21;99174.09;;;18.00;66.30
43115;BME280;28727;50.068;14.452;2023-07-22T05:46:53;99171.19;;;18.02;66.18
43115;BME280;28727;50.068;14.452;2023-07-22T05:49:29;99172.59;;;18.05;66.02
43115;BME280;28727;50.068;14.452;2023-07-22T05:52:01;99173.84;;;18.20;66.17
43115;BME280;28727;50.068;14.452;2023-07-22T05:54:33;99174.63;;;18.27;65.93
43115;BME280;28727;50.068;14.452;2023-07-22T05:57:05;99177.44;;;18.14;66.10
43115;BME280;28727;50.068;14.452;2023-07-22T05:59:40;99192.50;;;18.09;66.05
43115;BME280;28727;50.068;14.452;2023-07-22T06:02:13;99181.66;;;18.04;65.85
43115;BME280;28727;50.068;14.452;2023-07-22T06:04:45;99177.94;;;18.05;65.75
43115;BME280;28727;50.068;14.452;2023-07-22T06:07:20;99184.22;;;17.92;66.27
43115;BME280;28727;50.068;14.452;2023-07-22T06:09:51;99180.69;;;17.98;66.24
43115;BME280;28727;50.068;14.452;2023-07-22T06:12:23;99178.84;;;18.17;65.88
43115;BME280;28727;50.068;14.452;2023-07-22T06:14:56;99178.09;;;18.28;65.29
43115;BME280;28727;50.068;14.452;2023-07-22T06:17:32;99180.94;;;18.33;64.99
43115;BME280;28727;50.068;14.452;2023-07-22T06:20:12;99167.69;;;18.38;64.99
43115;BME280;28727;50.068;14.452;2023-07-22T06:22:46;99169.25;;;18.46;64.75
43115;BME280;28727;50.068;14.452;2023-07-22T06:25:18;99174.28;;;18.60;64.53
43115;BME280;28727;50.068;14.452;2023-07-22T06:27:50;99173.78;;;18.81;64.08
43115;BME280;28727;50.068;14.452;2023-07-22T06:30:22;99170.16;;;19.06;63.71
43115;BME280;28727;50.068;14.452;2023-07-22T06:32:56;99177.13;;;19.37;63.19
43115;BME280;28727;50.068;14.452;2023-07-22T06:35:28;99181.38;;;19.68;61.24
43115;BME280;28727;50.068;14.452;2023-07-22T06:38:00;99189.19;;;19.81;60.91
43115;BME280;28727;50.068;14.452;2023-07-22T06:40:35;99186.31;;;19.94;60.10
43115;BME280;28727;50.068;14.452;2023-07-22T06:43:31;99188.53;;;20.09;60.17
43115;BME280;28727;50.068;14.452;2023-07-22T06:46:03;99196.78;;;20.42;59.85
43115;BME280;28727;50.068;14.452;2023-07-22T06:48:35;99191.69;;;20.69;58.60
43115;BME280;28727;50.068;14.452;2023-07-22T06:51:07;99194.97;;;20.71;57.42
43115;BME280;28727;50.068;14.452;2023-07-22T06:53:42;99199.25;;;20.83;57.66
43115;BME280;28727;50.068;14.452;2023-07-22T06:56:13;99196.91;;;20.87;57.25
43115;BME280;28727;50.068;14.452;2023-07-22T06:58:45;99202.44;;;20.69;57.31
43115;BME280;28727;50.068;14.452;2023-07-22T07:01:18;99192.53;;;20.69;56.58
43115;BME280;28727;50.068;14.452;2023-07-22T07:03:53;99206.63;;;21.16;55.68
43115;BME280;28727;50.068;14.452;2023-07-22T07:06:28;99203.34;;;21.14;55.78
43115;BME280;28727;50.068;14.452;2023-07-22T07:09:02;99196.88;;;21.27;56.00
43115;BME280;28727;50.068;14.452;2023-07-22T07:11:36;99193.50;;;21.65;54.42
43115;BME280;28727;50.068;14.452;2023-07-22T07:14:08;99198.53;;;22.12;52.64
43115;BME280;28727;50.068;14.452;2023-07-22T07:16:40;99195.63;;;22.57;50.73
43115;BME280;28727;50.068;14.452;2023-07-22T07:19:12;99194.28;;;22.98;49.66
43115;BME280;28727;50.068;14.452;2023-07-22T07:21:46;99196.00;;;22.82;48.59
43115;BME280;28727;50.068;14.452;2023-07-22T07:24:21;99202.00;;;22.89;48.96
43115;BME280;28727;50.068;14.452;2023-07-22T07:26:54;99198.53;;;22.94;48.12
43115;BME280;28727;50.068;14.452;2023-07-22T07:29:29;99202.59;;;23.18;46.93
43115;BME280;28727;50.068;14.452;2023-07-22T07:32:22;99196.28;;;23.61;47.08
43115;BME280;28727;50.068;14.452;2023-07-22T07:35:00;99205.09;;;23.83;44.73
43115;BME280;28727;50.068;14.452;2023-07-22T07:37:32;99205.47;;;23.65;45.10
43115;BME280;28727;50.068;14.452;2023-07-22T07:40:07;99209.78;;;23.61;45.06
43115;BME280;28727;50.068;14.452;2023-07-22T07:42:42;99206.53;;;23.64;45.83
43115;BME280;28727;50.068;14.452;2023-07-22T07:45:14;99198.59;;;23.79;44.88
43115;BME280;28727;50.068;14.452;2023-07-22T07:47:46;99202.34;;;23.78;45.16
43115;BME280;28727;50.068;14.452;2023-07-22T07:50:24;99205.13;;;23.88;45.05
43115;BME280;28727;50.068;14.452;2023-07-22T07:52:56;99201.66;;;23.98;45.25
43115;BME280;28727;50.068;14.452;2023-07-22T07:55:27;99209.69;;;23.88;44.28
43115;BME280;28727;50.068;14.452;2023-07-22T07:57:59;99208.00;;;23.77;45.36
43115;BME280;28727;50.068;14.452;2023-07-22T08:00:33;99218.28;;;23.48;45.68
43115;BME280;28727;50.068;14.452;2023-07-22T08:03:05;99213.44;;;23.50;45.98
43115;BME280;28727;50.068;14.452;2023-07-22T08:05:39;99209.84;;;23.44;45.32
43115;BME280;28727;50.068;14.452;2023-07-22T08:08:12;99211.84;;;23.86;44.84
43115;BME280;28727;50.068;14.452;2023-07-22T08:10:44;99203.25;;;23.89;44.58
43115;BME280;28727;50.068;14.452;2023-07-22T08:13:16;99200.09;;;24.02;44.24
43115;BME280;28727;50.068;14.452;2023-07-22T08:15:48;99205.59;;;24.17;44.73
43115;BME280;28727;50.068;14.452;2023-07-22T08:18:20;99202.47;;;24.30;43.93
43115;BME280;28727;50.068;14.452;2023-07-22T08:20:53;99197.66;;;24.42;42.71
43115;BME280;28727;50.068;14.452;2023-07-22T08:23:25;99198.78;;;24.57;42.63
43115;BME280;28727;50.068;14.452;2023-07-22T08:26:00;99200.75;;;24.66;42.11
43115;BME280;28727;50.068;14.452;2023-07-22T08:28:34;99197.34;;;24.91;41.20
43115;BME280;28727;50.068;14.452;2023-07-22T08:31:07;99191.31;;;24.74;41.05
43115;BME280;28727;50.068;14.452;2023-07-22T08:33:46;99199.38;;;24.69;41.18
43115;BME280;28727;50.068;14.452;2023-07-22T08:36:21;99195.31;;;24.61;41.46
43115;BME280;28727;50.068;14.452;2023-07-22T08:38:55;99188.72;;;24.99;40.92
43115;BME280;28727;50.068;14.452;2023-07-22T08:41:28;99190.94;;;25.27;40.46
43115;BME280;28727;50.068;14.452;2023-07-22T08:44:04;99191.22;;;25.36;40.05
43115;BME280;28727;50.068;14.452;2023-07-22T08:46:38;99189.84;;;25.28;39.62
43115;BME280;28727;50.068;14.452;2023-07-22T08:49:11;99189.28;;;25.21;40.44
43115;BME280;28727;50.068;14.452;2023-07-22T08:51:44;99191.41;;;24.99;40.50
43115;BME280;28727;50.068;14.452;2023-07-22T08:54:19;99194.31;;;24.82;40.90
43115;BME280;28727;50.068;14.452;2023-07-22T08:56:56;99196.00;;;24.88;40.55
43115;BME280;28727;50.068;14.452;2023-07-22T08:59:30;99193.59;;;24.97;40.33
43115;BME280;28727;50.068;14.452;2023-07-22T09:02:05;99195.75;;;24.95;39.76
43115;BME280;28727;50.068;14.452;2023-07-22T09:04:41;99202.81;;;25.11;39.80
43115;BME280;28727;50.068;14.452;2023-07-22T09:07:14;99202.44;;;24.87;39.40
43115;BME280;28727;50.068;14.452;2023-07-22T09:09:48;99208.53;;;24.63;38.97
43115;BME280;28727;50.068;14.452;2023-07-22T09:12:23;99196.41;;;24.65;38.52
43115;BME280;28727;50.068;14.452;2023-07-22T09:14:59;99197.00;;;24.82;38.01
43115;BME280;28727;50.068;14.452;2023-07-22T09:17:31;99197.28;;;24.81;37.54
43115;BME280;28727;50.068;14.452;2023-07-22T09:20:04;99196.59;;;25.16;37.87
43115;BME280;28727;50.068;14.452;2023-07-22T09:22:48;99189.91;;;25.59;36.99
43115;BME280;28727;50.068;14.452;2023-07-22T09:25:34;99200.66;;;25.34;36.12
43115;BME280;28727;50.068;14.452;2023-07-22T09:28:08;99200.06;;;24.91;36.14
43115;BME280;28727;50.068;14.452;2023-07-22T09:30:41;99197.97;;;25.18;36.02
43115;BME280;28727;50.068;14.452;2023-07-22T09:33:21;99188.00;;;25.44;36.36
43115;BME280;28727;50.068;14.452;2023-07-22T09:35:54;99191.00;;;25.78;35.33
43115;BME280;28727;50.068;14.452;2023-07-22T09:38:26;99184.75;;;25.88;35.19
43115;BME280;28727;50.068;14.452;2023-07-22T09:41:01;99187.69;;;26.17;34.64
43115;BME280;28727;50.068;14.452;2023-07-22T09:43:36;99188.97;;;26.55;34.68
43115;BME280;28727;50.068;14.452;2023-07-22T09:46:10;99187.88;;;26.56;35.30
43115;BME280;28727;50.068;14.452;2023-07-22T09:48:46;99196.03;;;26.40;35.47
43115;BME280;28727;50.068;14.452;2023-07-22T09:51:18;99200.44;;;26.01;35.67
43115;BME280;28727;50.068;14.452;2023-07-22T09:54:02;99185.56;;;25.58;35.29
43115;BME280;28727;50.068;14.452;2023-07-22T09:56:46;99198.81;;;25.44;35.90
43115;BME280;28727;50.068;14.452;2023-07-22T09:59:18;99196.63;;;25.21;36.23
43115;BME280;28727;50.068;14.452;2023-07-22T10:01:51;99196.56;;;25.06;37.44
43115;BME280;28727;50.068;14.452;2023-07-22T10:04:28;99196.81;;;24.94;37.27
43115;BME280;28727;50.068;14.452;2023-07-22T10:07:07;99196.75;;;24.84;37.04
43115;BME280;28727;50.068;14.452;2023-07-22T10:09:42;99202.41;;;24.72;36.73
43115;BME280;28727;50.068;14.452;2023-07-22T10:12:18;99201.25;;;24.58;36.79
43115;BME280;28727;50.068;14.452;2023-07-22T10:14:51;99195.63;;;24.80;37.21
43115;BME280;28727;50.068;14.452;2023-07-22T10:17:23;99195.13;;;24.88;36.96
43115;BME280;28727;50.068;14.452;2023-07-22T10:19:57;99188.72;;;25.04;36.90
43115;BME280;28727;50.068;14.452;2023-07-22T10:22:30;99191.34;;;24.84;36.69
43115;BME280;28727;50.068;14.452;2023-07-22T10:25:06;99188.59;;;24.69;36.60
43115;BME280;28727;50.068;14.452;2023-07-22T10:27:39;99177.25;;;24.67;36.85
43115;BME280;28727;50.068;14.452;2023-07-22T10:30:14;99181.84;;;24.71;36.78
43115;BME280;28727;50.068;14.452;2023-07-22T10:32:47;99182.22;;;24.90;36.76
43115;BME280;28727;50.068;14.452;2023-07-22T10:38:12;99177.66;;;25.16;36.17
43115;BME280;28727;50.068;14.452;2023-07-22T10:43:31;99160.66;;;25.31;36.43
43115;BME280;28727;50.068;14.452;2023-07-22T10:46:12;99163.66;;;25.44;36.31
43115;BME280;28727;50.068;14.452;2023-07-22T10:48:44;99171.78;;;25.69;35.16
43115;BME280;28727;50.068;14.452;2023-07-22T10:51:15;99166.31;;;26.05;34.50
43115;BME280;28727;50.068;14.452;2023-07-22T10:53:49;99161.19;;;26.03;34.01
43115;BME280;28727;50.068;14.452;2023-07-22T10:56:25;99165.47;;;26.30;33.91
43115;BME280;28727;50.068;14.452;2023-07-22T10:58:59;99162.00;;;26.09;34.04
43115;BME280;28727;50.068;14.452;2023-07-22T11:01:33;99163.03;;;26.18;34.48
43115;BME280;28727;50.068;14.452;2023-07-22T11:04:21;99162.25;;;26.13;34.16
43115;BME280;28727;50.068;14.452;2023-07-22T11:07:02;99164.47;;;25.90;34.53
43115;BME280;28727;50.068;14.452;2023-07-22T11:09:38;99153.09;;;25.63;33.96
43115;BME280;28727;50.068;14.452;2023-07-22T11:12:17;99167.16;;;25.50;34.14
43115;BME280;28727;50.068;14.452;2023-07-22T11:15:02;99160.13;;;25.39;34.54
43115;BME280;28727;50.068;14.452;2023-07-22T11:17:35;99163.38;;;25.36;35.12
43115;BME280;28727;50.068;14.452;2023-07-22T11:20:10;99157.41;;;25.23;35.27
43115;BME280;28727;50.068;14.452;2023-07-22T11:22:42;99153.31;;;25.11;35.81
43115;BME280;28727;50.068;14.452;2023-07-22T11:25:17;99157.56;;;24.86;35.28
43115;BME280;28727;50.068;14.452;2023-07-22T11:27:53;99157.53;;;24.76;35.84
43115;BME280;28727;50.068;14.452;2023-07-22T11:30:25;99161.03;;;24.67;35.11
43115;BME280;28727;50.068;14.452;2023-07-22T11:32:58;99167.44;;;24.51;35.32
43115;BME280;28727;50.068;14.452;2023-07-22T11:35:30;99163.59;;;24.31;34.62
43115;BME280;28727;50.068;14.452;2023-07-22T11:38:04;99161.56;;;24.12;34.83
43115;BME280;28727;50.068;14.452;2023-07-22T11:40:38;99150.69;;;24.01;34.82
43115;BME280;28727;50.068;14.452;2023-07-22T11:43:14;99155.28;;;24.01;34.95
43115;BME280;28727;50.068;14.452;2023-07-22T11:45:45;99149.56;;;23.92;35.02
43115;BME280;28727;50.068;14.452;2023-07-22T11:48:19;99148.72;;;23.92;34.96
43115;BME280;28727;50.068;14.452;2023-07-22T11:50:59;99144.44;;;23.91;34.00
43115;BME280;28727;50.068;14.452;2023-07-22T11:53:38;99142.34;;;24.03;33.88
43115;BME280;28727;50.068;14.452;2023-07-22T11:56:10;99131.59;;;24.13;33.54
43115;BME280;28727;50.068;14.452;2023-07-22T11:58:42;99141.00;;;24.05;33.04
43115;BME280;28727;50.068;14.452;2023-07-22T12:01:16;99137.63;;;24.20;32.46
43115;BME280;28727;50.068;14.452;2023-07-22T12:03:55;99132.59;;;24.49;31.64
43115;BME280;28727;50.068;14.452;2023-07-22T12:06:27;99137.31;;;24.84;30.79
43115;BME280;28727;50.068;14.452;2023-07-22T12:08:59;99132.81;;;25.25;30.84
43115;BME280;28727;50.068;14.452;2023-07-22T12:11:35;99142.56;;;25.77;30.14
43115;BME280;28727;50.068;14.452;2023-07-22T12:16:45;99124.09;;;26.09;28.48
43115;BME280;28727;50.068;14.452;2023-07-22T12:19:17;99126.59;;;25.85;29.08
43115;BME280;28727;50.068;14.452;2023-07-22T12:21:49;99129.81;;;25.87;29.65
43115;BME280;28727;50.068;14.452;2023-07-22T12:24:23;99127.41;;;25.71;28.60
43115;BME280;28727;50.068;14.452;2023-07-22T12:26:55;99134.16;;;25.58;29.02
43115;BME280;28727;50.068;14.452;2023-07-22T12:29:27;99136.59;;;25.29;28.63
43115;BME280;28727;50.068;14.452;2023-07-22T12:32:00;99130.38;;;25.18;29.34
43115;BME280;28727;50.068;14.452;2023-07-22T12:34:32;99142.50;;;25.01;29.75
43115;BME280;28727;50.068;14.452;2023-07-22T12:37:05;99135.13;;;24.86;29.29
43115;BME280;28727;50.068;14.452;2023-07-22T12:39:40;99131.84;;;24.69;28.94
43115;BME280;28727;50.068;14.452;2023-07-22T12:42:13;99128.63;;;24.77;28.72
43115;BME280;28727;50.068;14.452;2023-07-22T12:44:44;99125.91;;;24.62;29.08
43115;BME280;28727;50.068;14.452;2023-07-22T12:47:21;99125.09;;;24.61;29.48
43115;BME280;28727;50.068;14.452;2023-07-22T12:49:53;99127.56;;;24.78;28.92
43115;BME280;28727;50.068;14.452;2023-07-22T12:52:25;99125.41;;;24.85;28.75
43115;BME280;28727;50.068;14.452;2023-07-22T12:54:58;99123.28;;;24.92;29.65
43115;BME280;28727;50.068;14.452;2023-07-22T12:57:33;99122.75;;;24.90;29.96
43115;BME280;28727;50.068;14.452;2023-07-22T13:00:08;99115.13;;;24.77;28.26
43115;BME280;28727;50.068;14.452;2023-07-22T13:02:43;99115.38;;;24.70;28.81
43115;BME280;28727;50.068;14.452;2023-07-22T13:05:14;99105.09;;;24.62;28.88
43115;BME280;28727;50.068;14.452;2023-07-22T13:07:46;99104.06;;;24.73;28.39
43115;BME280;28727;50.068;14.452;2023-07-22T13:10:18;99103.59;;;24.92;28.16
43115;BME280;28727;50.068;14.452;2023-07-22T13:12:51;99098.19;;;25.07;28.34
43115;BME280;28727;50.068;14.452;2023-07-22T13:15:23;99097.91;;;25.13;28.03
43115;BME280;28727;50.068;14.452;2023-07-22T13:17:59;99086.00;;;25.29;28.17
43115;BME280;28727;50.068;14.452;2023-07-22T13:20:32;99088.19;;;25.38;28.44
43115;BME280;28727;50.068;14.452;2023-07-22T13:23:04;99085.19;;;25.54;28.55
43115;BME280;28727;50.068;14.452;2023-07-22T13:25:36;99079.78;;;25.64;28.46
43115;BME280;28727;50.068;14.452;2023-07-22T13:28:07;99080.34;;;25.66;28.86
43115;BME280;28727;50.068;14.452;2023-07-22T13:30:39;99075.47;;;25.74;28.84
43115;BME280;28727;50.068;14.452;2023-07-22T13:33:11;99069.47;;;25.82;27.93